Hauptseite
METAR-TAF:

METAR-TAF

Flughäfen :

Syros, Griechenland

Breite: 37-25-16N, Länge: 024-56-54E, Höhe: 73 m

Beobachtung

Neuester Wetterbericht von vor 1 Stunde und 11 Minuten, um 10:50 UTC
Wind 11 kt aus Nord
Temperatur 15°C
Luftfeuchtigkeit 77%
Luftdruck 1020 hPa
Sichtweite 10 km oder mehr
Aufgelockert bewölkt in der Höhe von 1600 ft

METAR: LGSO 201050Z 36011KT 9999 SCT016 15/11 Q1020

Zeit: 14:01 (12:01 UTC)


TAF: fehlend

Wetterbeobachtungen und Prognosen von mehr als 4000 Flughäfen (METAR und TAF Bericht).

Die verfügbaren Stationen werden durch gelbe und rote Markierungen auf der Karte dargestellt.

Führen Sie die Maus auf sie, um den Namen der Station zu sehen.

Darauf klicken, um die Beobachtung von Wetterbeobachtungen und Prognosen zu sehen.

Um die Karte zu ändern : klicken Sie auf den grünen Tasten mit einem schwarzen Kreuz Zum Vergrößern, auf den grünen Button mit einem Gedankenstrich zu verkleinern, oder auf die grünen Pfeile für benachbarte Karten.


METAR-TAF: